createdAt,value
2018-12-30T00:04:09.253Z,70.17
2018-12-30T00:07:34.356Z,62.20
2018-12-30T00:14:05.201Z,56.92
2018-12-30T00:20:35.898Z,68.97
2018-12-30T00:23:05.880Z,95.22
2018-12-30T00:29:37.014Z,493.43
2018-12-30T00:36:07.736Z,268.67
2018-12-30T00:39:31.957Z,810.17
2018-12-30T00:46:03.142Z,605.80
2018-12-30T00:52:34.401Z,305.18
2018-12-30T00:59:04.811Z,189.45
2018-12-30T01:02:28.762Z,436.20
2018-12-30T01:08:59.322Z,716.60
2018-12-30T01:12:05.576Z,849.90
2018-12-30T01:18:36.789Z,897.30
2018-12-30T01:25:07.262Z,471.40
2018-12-30T01:31:37.858Z,449.90
2018-12-30T01:35:02.282Z,542.33
2018-12-30T01:41:32.837Z,317.15
2018-12-30T01:44:57.699Z,280.10
2018-12-30T01:51:32.987Z,118.42
2018-12-30T01:54:54.566Z,77.42
2018-12-30T02:01:25.384Z,551.55
2018-12-30T02:07:55.782Z,697.90
2018-12-30T02:11:20.165Z,461.12
2018-12-30T02:17:50.214Z,449.10
2018-12-30T02:24:21.273Z,899.08
2018-12-30T02:26:51.261Z,630.30
2018-12-30T02:33:22.185Z,304.68
2018-12-30T02:39:52.530Z,287.75
2018-12-30T02:43:17.091Z,249.53
2018-12-30T02:49:48.115Z,81.32
2018-12-30T02:56:18.500Z,59.42
2018-12-30T02:59:43.028Z,26.87
2018-12-30T03:06:13.738Z,19.77
2018-12-30T03:12:44.848Z,30.30
2018-12-30T03:19:16.082Z,28.47
2018-12-30T03:22:40.827Z,33.92
2018-12-30T03:29:10.992Z,40.15
2018-12-30T03:35:41.594Z,45.50
2018-12-30T03:42:12.467Z,43.13
2018-12-30T03:48:43.213Z,41.65
2018-12-30T03:55:13.896Z,40.12
2018-12-30T03:58:38.177Z,40.48
2018-12-30T04:05:08.899Z,21.87
2018-12-30T04:11:39.572Z,14.73
2018-12-30T04:18:10.412Z,18.67
2018-12-30T04:21:34.445Z,16.15
2018-12-30T04:28:05.708Z,13.27
2018-12-30T04:30:35.580Z,28.57
2018-12-30T04:37:06.594Z,20.25
2018-12-30T04:40:31.212Z,15.83
2018-12-30T04:47:02.085Z,16.05
2018-12-30T04:50:26.656Z,12.90
2018-12-30T04:56:57.270Z,12.13
2018-12-30T05:00:21.668Z,14.43
2018-12-30T05:06:52.091Z,17.05
2018-12-30T05:13:23.261Z,16.75
2018-12-30T05:16:47.438Z,16.70
2018-12-30T05:23:18.610Z,14.55
2018-12-30T05:26:42.729Z,14.35
2018-12-30T05:33:13.551Z,15.20
2018-12-30T05:36:37.851Z,14.33
2018-12-30T05:43:08.594Z,13.80
2018-12-30T05:49:39.554Z,13.38
2018-12-30T05:56:10.161Z,16.35
2018-12-30T06:02:40.981Z,15.05
2018-12-30T06:06:05.562Z,15.58
2018-12-30T06:12:36.146Z,17.48
2018-12-30T06:16:00.537Z,12.23
2018-12-30T06:22:31.068Z,10.80
2018-12-30T06:29:01.275Z,11.85
2018-12-30T06:32:15.369Z,12.65
2018-12-30T06:34:45.382Z,10.65
2018-12-30T06:41:15.835Z,10.68
2018-12-30T06:47:45.879Z,10.43
2018-12-30T06:54:16.410Z,11.45
2018-12-30T07:00:46.697Z,11.80
2018-12-30T07:04:10.729Z,9.53
2018-12-30T07:10:41.106Z,11.12
2018-12-30T07:14:05.781Z,10.98
2018-12-30T07:20:36.189Z,11.95
2018-12-30T07:27:07.014Z,10.40
2018-12-30T07:30:31.573Z,14.05
2018-12-30T07:37:02.745Z,12.58
2018-12-30T07:40:09.193Z,13.03
2018-12-30T07:46:40.129Z,13.00
2018-12-30T07:53:13.803Z,13.43
2018-12-30T07:59:43.147Z,12.50
2018-12-30T08:03:07.985Z,13.28
2018-12-30T08:09:38.992Z,15.27
2018-12-30T08:13:03.473Z,20.35
2018-12-30T08:19:34.554Z,17.50
2018-12-30T08:26:05.427Z,15.40
2018-12-30T08:29:29.629Z,18.25
2018-12-30T08:36:00.471Z,21.33
2018-12-30T08:38:30.459Z,19.45
2018-12-30T08:45:01.393Z,19.12
2018-12-30T08:51:33.064Z,21.85
2018-12-30T08:58:03.979Z,22.20
2018-12-30T09:01:28.728Z,21.12
2018-12-30T09:07:59.616Z,20.08
2018-12-30T09:14:30.049Z,22.00
2018-12-30T09:17:54.542Z,22.52
2018-12-30T09:24:25.468Z,19.03
2018-12-30T09:30:55.921Z,20.55
2018-12-30T09:34:20.038Z,18.65
2018-12-30T09:40:50.830Z,22.05
2018-12-30T09:47:21.645Z,19.23
2018-12-30T09:50:46.357Z,22.58
2018-12-30T09:57:17.243Z,17.73
2018-12-30T10:00:41.655Z,23.57
2018-12-30T10:07:12.205Z,20.45
2018-12-30T10:13:43.000Z,20.20
2018-12-30T10:17:07.684Z,17.45
2018-12-30T10:23:38.273Z,19.17
2018-12-30T10:30:09.927Z,16.15
2018-12-30T10:36:40.212Z,18.83
2018-12-30T10:43:10.550Z,20.83
2018-12-30T10:49:41.299Z,22.85
2018-12-30T10:56:12.693Z,16.32
2018-12-30T11:02:43.163Z,19.65
2018-12-30T11:06:07.553Z,38.43
2018-12-30T11:12:38.235Z,23.38
2018-12-30T11:16:03.098Z,21.82
2018-12-30T11:22:33.479Z,19.98
2018-12-30T11:29:04.601Z,18.62
2018-12-30T11:32:29.097Z,17.40
2018-12-30T11:38:59.687Z,16.40
2018-12-30T11:42:17.112Z,17.02
2018-12-30T11:44:46.962Z,16.65
2018-12-30T11:51:17.185Z,19.35
2018-12-30T11:54:42.396Z,22.70
2018-12-30T12:01:13.014Z,23.40
2018-12-30T12:04:37.200Z,34.92
2018-12-30T12:11:07.385Z,22.70
2018-12-30T12:14:31.755Z,23.83
2018-12-30T12:21:01.747Z,23.22
2018-12-30T12:27:32.410Z,16.97
2018-12-30T12:30:56.731Z,19.50
2018-12-30T12:37:27.862Z,19.25
2018-12-30T12:43:58.826Z,21.17
2018-12-30T12:50:29.662Z,21.95
2018-12-30T12:57:00.787Z,17.90
2018-12-30T13:03:31.653Z,18.23
2018-12-30T13:10:02.071Z,18.55
2018-12-30T13:13:26.387Z,15.83
2018-12-30T13:19:57.042Z,16.37
2018-12-30T13:26:27.992Z,16.87
2018-12-30T13:29:52.510Z,20.23
2018-12-30T13:36:23.919Z,15.13
2018-12-30T13:42:55.020Z,18.07
2018-12-30T13:45:25.365Z,15.88
2018-12-30T13:51:56.275Z,13.62
2018-12-30T13:58:27.044Z,16.35
2018-12-30T14:01:51.265Z,17.30
2018-12-30T14:08:22.695Z,18.37
2018-12-30T14:14:53.465Z,17.37
2018-12-30T14:18:17.798Z,14.83
2018-12-30T14:24:55.178Z,21.15
2018-12-30T14:31:20.971Z,16.75
2018-12-30T14:34:45.683Z,16.17
2018-12-30T14:41:16.412Z,14.77
2018-12-30T14:47:47.334Z,16.73
2018-12-30T14:54:17.629Z,17.30
2018-12-30T15:00:48.216Z,18.42
2018-12-30T15:07:19.282Z,20.15
2018-12-30T15:13:50.015Z,23.75
2018-12-30T15:17:14.672Z,22.93
2018-12-30T15:23:45.758Z,23.75
2018-12-30T15:30:16.913Z,25.88
2018-12-30T15:33:41.120Z,28.12
2018-12-30T15:40:11.957Z,22.32
2018-12-30T15:43:36.333Z,31.10
2018-12-30T15:50:08.366Z,29.13
2018-12-30T15:56:39.367Z,28.95
2018-12-30T16:00:03.779Z,28.57
2018-12-30T16:06:34.577Z,117.42
2018-12-30T16:13:05.414Z,197.25
2018-12-30T16:16:11.890Z,161.85
2018-12-30T16:22:42.315Z,333.50
2018-12-30T16:29:13.506Z,329.25
2018-12-30T16:32:37.376Z,313.00
2018-12-30T16:39:07.365Z,309.15
2018-12-30T16:45:37.760Z,346.93
2018-12-30T16:49:02.332Z,297.90
2018-12-30T16:51:32.256Z,275.82
2018-12-30T16:58:03.083Z,174.12
2018-12-30T17:04:34.070Z,222.65
2018-12-30T17:11:04.422Z,176.20
2018-12-30T17:17:35.095Z,133.25
2018-12-30T17:20:59.161Z,130.50
2018-12-30T17:27:29.929Z,73.12
2018-12-30T17:34:01.108Z,61.80
2018-12-30T17:37:25.428Z,56.25
2018-12-30T17:43:55.674Z,36.35
2018-12-30T17:47:20.012Z,30.23
2018-12-30T17:53:51.181Z,29.72
2018-12-30T18:00:22.319Z,27.13
2018-12-30T18:03:46.832Z,27.82
2018-12-30T18:10:18.285Z,23.10
2018-12-30T18:16:48.651Z,24.77
2018-12-30T18:20:13.099Z,24.07
2018-12-30T18:26:44.199Z,18.07
2018-12-30T18:30:08.693Z,14.50
2018-12-30T18:36:39.490Z,14.87
2018-12-30T18:43:10.612Z,13.62
2018-12-30T18:46:34.973Z,22.30
2018-12-30T18:53:05.912Z,21.20
2018-12-30T18:55:35.916Z,21.20
2018-12-30T19:02:07.004Z,24.65
2018-12-30T19:08:37.721Z,25.65
2018-12-30T19:15:08.163Z,21.45
2018-12-30T19:21:38.844Z,24.90
2018-12-30T19:25:03.619Z,21.97
2018-12-30T19:31:34.506Z,26.77
2018-12-30T19:34:59.369Z,27.30
2018-12-30T19:41:32.008Z,22.30
2018-12-30T19:48:02.914Z,25.25
2018-12-30T19:51:27.327Z,24.50
2018-12-30T19:57:57.756Z,29.37
2018-12-30T20:04:28.920Z,27.10
2018-12-30T20:07:53.340Z,28.75
2018-12-30T20:14:23.977Z,29.52
2018-12-30T20:17:48.571Z,30.00
2018-12-30T20:24:18.912Z,30.35
2018-12-30T20:27:43.372Z,31.62
2018-12-30T20:34:14.407Z,34.63
2018-12-30T20:40:45.246Z,31.37
2018-12-30T20:44:09.690Z,33.25
2018-12-30T20:50:40.546Z,32.43
2018-12-30T20:57:10.922Z,32.87
2018-12-30T20:59:40.896Z,36.03
2018-12-30T21:06:11.563Z,33.48
2018-12-30T21:12:42.301Z,33.88
2018-12-30T21:19:12.695Z,29.77
2018-12-30T21:22:36.696Z,27.87
2018-12-30T21:29:07.616Z,29.30
2018-12-30T21:32:32.063Z,31.05
2018-12-30T21:39:03.851Z,26.60
2018-12-30T21:45:34.532Z,30.03
2018-12-30T21:48:58.646Z,29.00
2018-12-30T21:55:29.514Z,32.05
2018-12-30T21:58:17.760Z,29.50
2018-12-30T22:00:47.862Z,29.48
2018-12-30T22:07:18.132Z,34.03
2018-12-30T22:10:42.395Z,29.52
2018-12-30T22:17:12.967Z,32.78
2018-12-30T22:23:42.890Z,26.15
2018-12-30T22:27:07.447Z,30.00
2018-12-30T22:33:37.727Z,32.50
2018-12-30T22:37:02.266Z,28.13
2018-12-30T22:43:33.134Z,27.42
2018-12-30T22:50:12.627Z,27.35
2018-12-30T22:56:43.485Z,28.87
2018-12-30T23:03:14.189Z,27.37
2018-12-30T23:09:45.058Z,27.95
2018-12-30T23:16:15.957Z,28.62
2018-12-30T23:19:40.574Z,27.53
2018-12-30T23:26:11.479Z,32.35
2018-12-30T23:32:42.400Z,32.07
2018-12-30T23:36:07.180Z,31.85
2018-12-30T23:42:38.030Z,32.93
2018-12-30T23:49:08.880Z,35.35
2018-12-30T23:55:41.713Z,35.23
2018-12-30T23:59:05.915Z,34.98
